Time;durP1;ratioP1;P1;durP2;ratioP2;P2;SDS_P1;SDS_P2;PMS_P1;PMS_P2;Temp;Humidity;BMP_temperature;BMP_pressure;BME280_temperature;BME280_humidity;BME280_pressure;Samples;Min_cycle;Max_cycle;Signal;HPM_P1;HPM_P2
2022/04/10 00:01:50;;;;;;;;;;;0.70;99.90;;;;;;5047435;28;19913;-74
2022/04/10 00:04:15;;;;;;;;;;;0.80;99.90;;;;;;5049367;28;19948;-73
2022/04/10 00:06:41;;;;;;;;;;;0.80;99.90;;;;;;5050893;28;19919;-74
2022/04/10 00:09:06;;;;;;;;;;;1.00;99.90;;;;;;5050994;28;19909;-74
2022/04/10 00:11:32;;;;;;;;;;;1.00;99.90;;;;;;5050791;28;19908;-73
2022/04/10 00:13:58;;;;;;;;;;;0.90;99.90;;;;;;5054887;28;20378;-73
2022/04/10 00:16:24;;;;;;;;;;;1.00;99.90;;;;;;5054793;28;19991;-73
2022/04/10 00:18:51;;;;;;;;;;;1.00;99.90;;;;;;5050017;28;20003;-74
2022/04/10 00:21:17;;;;;;;;;;;1.00;99.90;;;;;;5051547;28;19916;-73
2022/04/10 00:23:42;;;;;;;;;;;1.00;99.90;;;;;;5047496;28;19909;-73
2022/04/10 00:26:09;;;;;;;;;;;1.00;99.90;;;;;;5055162;28;20262;-74
2022/04/10 00:28:34;;;;;;;;;;;1.00;99.90;;;;;;5054791;28;20015;-74
2022/04/10 00:31:00;;;;;;;;;;;0.90;99.90;;;;;;5054470;28;20242;-74
2022/04/10 00:33:26;;;;;;;;;;;0.90;99.90;;;;;;5054460;28;19915;-74
2022/04/10 00:35:51;;;;;;;;;;;0.90;99.90;;;;;;5054503;28;19908;-74
2022/04/10 00:38:17;;;;;;;;;;;0.90;99.90;;;;;;5054576;28;19913;-73
2022/04/10 00:40:42;;;;;;;;;;;1.00;99.90;;;;;;5054821;28;20272;-73
2022/04/10 00:43:08;;;;;;;;;;;1.00;99.90;;;;;;5053986;28;19916;-73
2022/04/10 00:45:33;;;;;;;;;;;1.00;99.90;;;;;;5054126;28;19915;-73
2022/04/10 00:47:59;;;;;;;;;;;1.10;99.90;;;;;;5054150;28;19954;-73
2022/04/10 00:50:25;;;;;;;;;;;1.10;99.90;;;;;;5054088;28;19908;-73
2022/04/10 00:52:51;;;;;;;;;;;1.10;99.90;;;;;;5054215;28;20270;-74
2022/04/10 00:55:16;;;;;;;;;;;1.10;99.90;;;;;;5054096;28;19909;-74
2022/04/10 00:57:45;;;;;;;;;;;1.10;99.90;;;;;;5054238;28;19996;-74
2022/04/10 01:00:11;;;;;;;;;;;1.10;99.90;;;;;;5053776;28;19920;-73
2022/04/10 01:02:38;;;;;;;;;;;1.10;99.90;;;;;;5054020;28;20305;-73
2022/04/10 01:05:04;;;;;;;;;;;1.10;99.90;;;;;;5053882;28;19909;-73
2022/04/10 01:07:29;;;;;;;;;;;1.10;99.90;;;;;;5054026;28;19916;-73
2022/04/10 01:09:56;;;;;;;;;;;1.20;99.90;;;;;;5053866;28;20038;-74
2022/04/10 01:12:22;;;;;;;;;;;1.20;99.90;;;;;;5053657;28;19920;-74
2022/04/10 01:14:48;;;;;;;;;;;1.20;99.90;;;;;;5053554;28;20210;-74
2022/04/10 01:17:14;;;;;;;;;;;1.10;99.90;;;;;;5051211;28;19920;-74
2022/04/10 01:19:40;;;;;;;;;;;1.10;99.90;;;;;;5051941;28;19915;-74
2022/04/10 01:22:06;;;;;;;;;;;1.10;99.90;;;;;;5053539;28;20292;-74
2022/04/10 01:24:38;;;;;;;;;;;1.00;99.90;;;;;;5053425;28;19970;-73
2022/04/10 01:27:04;;;;;;;;;;;0.90;99.90;;;;;;5053488;28;20832;-74
2022/04/10 01:29:30;;;;;;;;;;;0.90;99.90;;;;;;5053566;28;19991;-73
2022/04/10 01:31:56;;;;;;;;;;;0.80;99.90;;;;;;5053387;28;19909;-73
2022/04/10 01:34:22;;;;;;;;;;;0.70;99.90;;;;;;5053330;28;19913;-74
2022/04/10 01:36:47;;;;;;;;;;;0.70;99.90;;;;;;5053514;28;19920;-74
2022/04/10 01:39:15;;;;;;;;;;;0.70;99.90;;;;;;5053416;28;19909;-73
2022/04/10 01:41:41;;;;;;;;;;;0.80;99.90;;;;;;5053026;28;19909;-74
2022/04/10 01:44:07;;;;;;;;;;;0.90;99.90;;;;;;5053082;28;19962;-74
2022/04/10 01:46:33;;;;;;;;;;;0.90;99.90;;;;;;5053187;28;19970;-73
2022/04/10 01:48:58;;;;;;;;;;;0.90;99.90;;;;;;5048251;28;20262;-74
2022/04/10 01:51:24;;;;;;;;;;;0.90;99.90;;;;;;5052953;28;19916;-74
2022/04/10 01:53:51;;;;;;;;;;;0.90;99.90;;;;;;5053034;28;19950;-74
2022/04/10 01:56:16;;;;;;;;;;;0.90;99.90;;;;;;5052984;28;19908;-73
2022/04/10 01:58:43;;;;;;;;;;;0.80;99.90;;;;;;5052959;28;19909;-74
2022/04/10 02:01:09;;;;;;;;;;;0.70;99.90;;;;;;5052882;28;19908;-74
2022/04/10 02:03:35;;;;;;;;;;;0.60;99.90;;;;;;5052605;28;20006;-75
2022/04/10 02:06:01;;;;;;;;;;;0.50;99.90;;;;;;5052912;28;19956;-73
2022/04/10 02:08:27;;;;;;;;;;;0.50;99.90;;;;;;5051380;28;19909;-73
2022/04/10 02:10:53;;;;;;;;;;;0.40;99.90;;;;;;5052644;28;19909;-73
2022/04/10 02:13:19;;;;;;;;;;;0.30;99.90;;;;;;5051016;28;19915;-73
2022/04/10 02:15:45;;;;;;;;;;;0.20;99.90;;;;;;5046197;28;19909;-74
2022/04/10 02:18:10;;;;;;;;;;;0.10;99.90;;;;;;5052540;28;19917;-74
2022/04/10 02:20:36;;;;;;;;;;;0.10;99.90;;;;;;5052720;28;20350;-74
2022/04/10 02:23:01;;;;;;;;;;;0.00;99.90;;;;;;5052442;28;20007;-73
2022/04/10 02:25:27;;;;;;;;;;;0.10;99.90;;;;;;5052184;28;19913;-74
2022/04/10 02:27:52;;;;;;;;;;;0.10;99.90;;;;;;5052551;28;19913;-73
2022/04/10 02:30:18;;;;;;;;;;;0.20;99.90;;;;;;5052368;28;19908;-74
2022/04/10 02:32:44;;;;;;;;;;;0.30;99.90;;;;;;5052512;28;20004;-73
2022/04/10 02:35:09;;;;;;;;;;;0.20;99.90;;;;;;5051619;28;20397;-73
2022/04/10 02:37:35;;;;;;;;;;;0.20;99.90;;;;;;5052306;28;19916;-74
2022/04/10 02:40:02;;;;;;;;;;;0.10;99.90;;;;;;5052049;28;19909;-74
2022/04/10 02:42:28;;;;;;;;;;;0.10;99.90;;;;;;5051977;28;20139;-74
2022/04/10 02:44:53;;;;;;;;;;;0.00;99.90;;;;;;5051799;28;20376;-74
2022/04/10 02:47:19;;;;;;;;;;;-0.10;99.90;;;;;;5051808;28;19920;-73
2022/04/10 02:49:45;;;;;;;;;;;-0.20;99.90;;;;;;5048156;28;19959;-74
2022/04/10 02:52:10;;;;;;;;;;;-0.30;99.90;;;;;;5051668;28;19926;-74
2022/04/10 02:54:36;;;;;;;;;;;-0.20;99.90;;;;;;5051625;28;19909;-73
2022/04/10 02:57:01;;;;;;;;;;;-0.30;99.90;;;;;;5051851;28;19913;-74
2022/04/10 02:59:27;;;;;;;;;;;-0.30;99.90;;;;;;5051823;28;19927;-73
2022/04/10 03:01:52;;;;;;;;;;;-0.40;99.90;;;;;;5051504;28;19939;-74
2022/04/10 03:04:18;;;;;;;;;;;-0.30;99.90;;;;;;5051335;28;20129;-73
2022/04/10 03:06:43;;;;;;;;;;;-0.20;99.90;;;;;;5051444;28;19975;-74
2022/04/10 03:09:09;;;;;;;;;;;-0.20;99.90;;;;;;5051361;28;20328;-74
2022/04/10 03:11:34;;;;;;;;;;;-0.10;99.90;;;;;;5051075;28;20282;-73
2022/04/10 03:14:00;;;;;;;;;;;-0.10;99.90;;;;;;5051242;28;19909;-74
2022/04/10 03:16:25;;;;;;;;;;;-0.20;99.90;;;;;;5051449;28;20028;-73
2022/04/10 03:18:51;;;;;;;;;;;-0.10;99.90;;;;;;5045945;28;20297;-74
2022/04/10 03:21:17;;;;;;;;;;;-0.20;99.90;;;;;;5050876;28;19962;-73
2022/04/10 03:23:43;;;;;;;;;;;-0.20;99.90;;;;;;5050920;28;19909;-74
2022/04/10 03:26:09;;;;;;;;;;;-0.20;99.90;;;;;;5051332;28;19923;-73
2022/04/10 03:28:34;;;;;;;;;;;-0.20;99.90;;;;;;5051406;28;19991;-73
2022/04/10 03:31:00;;;;;;;;;;;-0.20;99.90;;;;;;5051265;28;19909;-74
2022/04/10 03:33:25;;;;;;;;;;;-0.30;99.90;;;;;;5050941;28;19952;-74
2022/04/10 03:35:52;;;;;;;;;;;-0.20;99.90;;;;;;5051286;28;19954;-73
2022/04/10 03:38:17;;;;;;;;;;;-0.20;99.90;;;;;;5051176;28;19913;-74
2022/04/10 03:40:43;;;;;;;;;;;-0.30;99.90;;;;;;5050994;28;19931;-73
2022/04/10 03:43:08;;;;;;;;;;;-0.40;99.90;;;;;;5050886;28;19909;-73
2022/04/10 03:45:34;;;;;;;;;;;-0.40;99.90;;;;;;5051155;28;20378;-74
2022/04/10 03:47:59;;;;;;;;;;;-0.30;99.90;;;;;;5050283;28;19951;-73
2022/04/10 03:50:26;;;;;;;;;;;-0.40;99.90;;;;;;5050760;28;19913;-73
2022/04/10 03:52:51;;;;;;;;;;;-0.20;99.90;;;;;;5050797;28;20030;-73
2022/04/10 03:55:17;;;;;;;;;;;-0.40;99.90;;;;;;5049344;28;20015;-73
2022/04/10 03:57:42;;;;;;;;;;;-0.30;99.90;;;;;;5050980;28;19909;-74
2022/04/10 04:00:08;;;;;;;;;;;-0.30;99.90;;;;;;5049612;28;20277;-72
2022/04/10 04:02:33;;;;;;;;;;;-0.20;99.90;;;;;;5050821;28;19913;-73
2022/04/10 04:04:59;;;;;;;;;;;-0.20;99.90;;;;;;5050637;28;19909;-73
2022/04/10 04:07:24;;;;;;;;;;;-0.20;99.90;;;;;;5050669;28;19920;-73
2022/04/10 04:09:50;;;;;;;;;;;0.10;99.90;;;;;;5050854;28;20344;-73
2022/04/10 04:12:15;;;;;;;;;;;0.00;99.90;;;;;;5050784;28;19913;-73
2022/04/10 04:14:41;;;;;;;;;;;-0.10;99.90;;;;;;5049365;28;19909;-73
2022/04/10 04:17:07;;;;;;;;;;;-0.20;99.90;;;;;;5050751;28;20324;-73
2022/04/10 04:19:32;;;;;;;;;;;0.00;99.90;;;;;;5049316;28;20009;-73
2022/04/10 04:21:58;;;;;;;;;;;-0.10;99.90;;;;;;5050414;28;19916;-73
2022/04/10 04:24:23;;;;;;;;;;;-0.10;99.90;;;;;;5050368;28;20345;-73
2022/04/10 04:26:49;;;;;;;;;;;-0.30;99.90;;;;;;5050701;28;19913;-73
2022/04/10 04:29:14;;;;;;;;;;;-0.50;99.90;;;;;;5050630;28;19934;-74
2022/04/10 04:31:40;;;;;;;;;;;-0.60;99.90;;;;;;5050579;28;20377;-73
2022/04/10 04:34:07;;;;;;;;;;;-0.70;99.90;;;;;;5050382;28;19909;-73
2022/04/10 04:36:32;;;;;;;;;;;-0.70;99.90;;;;;;5050998;28;19990;-73
2022/04/10 04:38:58;;;;;;;;;;;-0.80;99.90;;;;;;5050469;28;19985;-73
2022/04/10 04:41:23;;;;;;;;;;;-0.80;99.90;;;;;;5050371;28;20286;-73
2022/04/10 04:43:49;;;;;;;;;;;-0.80;99.90;;;;;;5050305;28;19909;-74
2022/04/10 04:46:15;;;;;;;;;;;-0.80;99.90;;;;;;5052687;28;19913;-71
2022/04/10 04:48:40;;;;;;;;;;;-0.80;99.90;;;;;;5050873;28;19954;-73
2022/04/10 04:51:06;;;;;;;;;;;-0.80;99.90;;;;;;5050142;28;19952;-73
2022/04/10 04:53:31;;;;;;;;;;;-0.60;99.90;;;;;;5050015;28;19913;-73
2022/04/10 04:55:57;;;;;;;;;;;-0.50;99.90;;;;;;5050402;28;19919;-73
2022/04/10 04:58:22;;;;;;;;;;;-0.40;99.90;;;;;;5051676;28;19912;-73
2022/04/10 05:00:48;;;;;;;;;;;-0.20;99.90;;;;;;5054006;28;19915;-73
2022/04/10 05:03:16;;;;;;;;;;;-0.20;99.90;;;;;;5054071;28;19963;-73
2022/04/10 05:05:41;;;;;;;;;;;-0.20;99.90;;;;;;5053838;28;19955;-74
2022/04/10 05:08:07;;;;;;;;;;;-0.10;99.90;;;;;;5053888;28;19917;-73
2022/04/10 05:10:32;;;;;;;;;;;-0.10;99.90;;;;;;5053853;28;19912;-73
2022/04/10 05:12:58;;;;;;;;;;;0.00;99.90;;;;;;5053288;28;19944;-73
2022/04/10 05:15:23;;;;;;;;;;;0.10;99.90;;;;;;5053469;28;20331;-73
2022/04/10 05:17:51;;;;;;;;;;;0.10;99.90;;;;;;5052905;28;19921;-73
2022/04/10 05:20:17;;;;;;;;;;;0.20;99.90;;;;;;5053262;28;19909;-73
2022/04/10 05:22:43;;;;;;;;;;;0.20;99.90;;;;;;5053410;28;19909;-73
2022/04/10 05:25:08;;;;;;;;;;;0.30;99.90;;;;;;5053539;28;19908;-73
2022/04/10 05:27:34;;;;;;;;;;;0.30;99.90;;;;;;5053686;28;20011;-73
2022/04/10 05:29:59;;;;;;;;;;;0.40;99.90;;;;;;5053443;28;19924;-73
2022/04/10 05:32:25;;;;;;;;;;;0.40;99.90;;;;;;5053299;28;19915;-73
2022/04/10 05:34:50;;;;;;;;;;;0.50;99.90;;;;;;5054082;28;19908;-73
2022/04/10 05:37:16;;;;;;;;;;;0.60;99.90;;;;;;5053900;28;19913;-73
2022/04/10 05:39:42;;;;;;;;;;;0.80;99.90;;;;;;5053410;28;20433;-73
2022/04/10 05:42:08;;;;;;;;;;;0.90;99.90;;;;;;5051697;28;19912;-73
2022/04/10 05:44:34;;;;;;;;;;;0.90;99.90;;;;;;5053125;28;19970;-73
2022/04/10 05:47:00;;;;;;;;;;;1.00;99.90;;;;;;5053780;28;20417;-73
2022/04/10 05:49:26;;;;;;;;;;;1.00;99.90;;;;;;5050100;28;19956;-73
2022/04/10 05:51:52;;;;;;;;;;;1.10;99.90;;;;;;5046586;28;19909;-73
2022/04/10 05:54:18;;;;;;;;;;;1.20;99.90;;;;;;5052882;28;19915;-73
2022/04/10 05:56:43;;;;;;;;;;;1.20;99.90;;;;;;5052983;28;19915;-73
2022/04/10 05:59:09;;;;;;;;;;;1.30;99.90;;;;;;5052924;28;19909;-74
2022/04/10 06:01:34;;;;;;;;;;;1.40;99.90;;;;;;5052734;28;19935;-73
2022/04/10 06:04:00;;;;;;;;;;;1.50;99.90;;;;;;5052730;28;20362;-73
2022/04/10 06:06:25;;;;;;;;;;;1.60;99.90;;;;;;5052497;28;19917;-73
2022/04/10 06:08:51;;;;;;;;;;;1.70;99.90;;;;;;5052804;28;19916;-74
2022/04/10 06:11:16;;;;;;;;;;;1.70;99.90;;;;;;5051685;28;19909;-73
2022/04/10 06:13:42;;;;;;;;;;;1.80;99.90;;;;;;5052411;28;19991;-73
2022/04/10 06:16:07;;;;;;;;;;;1.90;99.90;;;;;;5052652;28;20370;-75
2022/04/10 06:18:33;;;;;;;;;;;2.00;99.90;;;;;;5046901;28;19920;-73
2022/04/10 06:20:58;;;;;;;;;;;2.10;99.90;;;;;;5051598;28;20384;-73
2022/04/10 06:23:24;;;;;;;;;;;2.30;99.90;;;;;;5052161;28;19920;-73
2022/04/10 06:25:50;;;;;;;;;;;2.40;99.90;;;;;;5052428;28;19909;-74
2022/04/10 06:28:15;;;;;;;;;;;2.50;99.90;;;;;;5052367;28;19963;-74
2022/04/10 06:30:43;;;;;;;;;;;2.60;99.90;;;;;;5052324;28;20365;-73
2022/04/10 06:33:09;;;;;;;;;;;2.70;99.90;;;;;;5051971;28;19919;-73
2022/04/10 06:35:34;;;;;;;;;;;2.90;99.90;;;;;;5052029;28;19912;-74
2022/04/10 06:37:59;;;;;;;;;;;3.10;99.90;;;;;;5052156;28;20004;-73
2022/04/10 06:40:25;;;;;;;;;;;3.20;99.90;;;;;;5050813;28;19916;-74
2022/04/10 06:42:50;;;;;;;;;;;3.30;99.90;;;;;;5051898;28;20437;-74
2022/04/10 06:45:17;;;;;;;;;;;3.60;99.90;;;;;;5051862;28;19913;-74
2022/04/10 06:47:42;;;;;;;;;;;3.70;99.90;;;;;;5051147;28;19916;-74
2022/04/10 06:50:08;;;;;;;;;;;3.80;99.90;;;;;;5051623;28;20008;-74
2022/04/10 06:52:34;;;;;;;;;;;3.90;99.90;;;;;;5051559;28;19905;-74
2022/04/10 06:54:59;;;;;;;;;;;4.00;99.90;;;;;;5051787;28;19908;-74
2022/04/10 06:57:25;;;;;;;;;;;4.20;99.90;;;;;;5052831;28;19915;-74
2022/04/10 06:59:50;;;;;;;;;;;4.30;99.90;;;;;;5052983;28;19935;-73
2022/04/10 07:02:16;;;;;;;;;;;4.30;99.90;;;;;;5051619;28;20301;-74
2022/04/10 07:04:42;;;;;;;;;;;4.50;99.90;;;;;;5044206;28;20247;-74
2022/04/10 07:07:07;;;;;;;;;;;4.30;99.90;;;;;;5052542;28;19948;-74
2022/04/10 07:09:33;;;;;;;;;;;4.20;99.90;;;;;;5052753;28;19909;-74
2022/04/10 07:11:58;;;;;;;;;;;4.30;99.90;;;;;;5051705;28;19912;-73
2022/04/10 07:14:24;;;;;;;;;;;4.50;99.90;;;;;;5051649;28;19915;-74
2022/04/10 07:16:49;;;;;;;;;;;4.60;99.90;;;;;;5050543;28;20358;-74
2022/04/10 07:19:15;;;;;;;;;;;4.50;99.90;;;;;;5047916;28;19913;-73
2022/04/10 07:24:26;;;;;;;;;;;4.80;99.90;;;;;;5045565;28;20100;-73
2022/04/10 07:26:52;;;;;;;;;;;4.90;99.90;;;;;;5051662;28;19920;-73
2022/04/10 07:29:18;;;;;;;;;;;5.10;99.90;;;;;;5051609;28;19913;-74
2022/04/10 07:31:43;;;;;;;;;;;5.30;99.90;;;;;;5051247;28;20011;-74
2022/04/10 07:34:09;;;;;;;;;;;5.50;99.90;;;;;;5051130;28;19919;-73
2022/04/10 07:36:34;;;;;;;;;;;5.50;99.90;;;;;;5051278;28;20516;-73
2022/04/10 07:39:00;;;;;;;;;;;5.50;99.90;;;;;;5051302;28;19908;-73
2022/04/10 07:41:25;;;;;;;;;;;5.90;99.90;;;;;;5051311;28;19909;-73
2022/04/10 07:43:51;;;;;;;;;;;5.90;99.90;;;;;;5051081;28;19960;-74
2022/04/10 07:49:00;;;;;;;;;;;6.40;99.90;;;;;;5051177;28;19916;-73
2022/04/10 07:51:26;;;;;;;;;;;6.40;99.90;;;;;;5050783;28;19909;-74
2022/04/10 07:53:54;;;;;;;;;;;7.20;99.90;;;;;;5050714;28;20003;-73
2022/04/10 07:56:20;;;;;;;;;;;8.60;99.90;;;;;;5051216;28;20319;-73
2022/04/10 07:58:46;;;;;;;;;;;10.00;97.40;;;;;;5050953;28;19951;-74
2022/04/10 08:01:11;;;;;;;;;;;10.90;94.00;;;;;;5051134;28;19909;-74
2022/04/10 08:03:37;;;;;;;;;;;10.70;93.50;;;;;;5050645;28;19909;-74
2022/04/10 08:06:02;;;;;;;;;;;10.10;94.30;;;;;;5051064;28;20459;-74
2022/04/10 08:08:28;;;;;;;;;;;8.30;96.10;;;;;;5051141;28;19919;-73
2022/04/10 08:10:54;;;;;;;;;;;7.30;97.10;;;;;;5051453;28;20027;-74
2022/04/10 08:13:19;;;;;;;;;;;7.40;97.70;;;;;;5050513;28;19909;-74
2022/04/10 08:15:46;;;;;;;;;;;7.70;97.00;;;;;;5051057;28;20271;-74
2022/04/10 08:18:11;;;;;;;;;;;8.50;97.00;;;;;;5050859;28;19917;-74
2022/04/10 08:20:37;;;;;;;;;;;8.50;94.70;;;;;;5050622;28;19948;-74
2022/04/10 08:23:03;;;;;;;;;;;8.80;95.90;;;;;;5050871;28;19909;-74
2022/04/10 08:25:28;;;;;;;;;;;9.30;94.60;;;;;;5049433;28;20361;-74
2022/04/10 08:27:54;;;;;;;;;;;9.40;92.90;;;;;;5050619;28;20366;-74
2022/04/10 08:30:20;;;;;;;;;;;9.70;93.30;;;;;;5050946;28;19962;-74
2022/04/10 08:32:45;;;;;;;;;;;11.20;90.00;;;;;;5050987;28;20290;-74
2022/04/10 08:35:11;;;;;;;;;;;11.40;88.00;;;;;;5054492;28;19969;-74
2022/04/10 08:37:37;;;;;;;;;;;11.60;84.70;;;;;;5054766;28;19909;-74
2022/04/10 08:40:04;;;;;;;;;;;11.80;84.30;;;;;;5054725;28;20285;-74
2022/04/10 08:42:29;;;;;;;;;;;12.50;83.10;;;;;;5054288;28;19909;-74
2022/04/10 08:44:56;;;;;;;;;;;12.50;79.20;;;;;;5054359;28;19913;-74
2022/04/10 08:47:21;;;;;;;;;;;12.10;81.60;;;;;;5054401;28;19913;-74
2022/04/10 08:49:48;;;;;;;;;;;13.10;80.20;;;;;;5051809;28;19996;-75
2022/04/10 08:52:15;;;;;;;;;;;13.70;76.40;;;;;;5054794;28;19909;-74
2022/04/10 08:54:41;;;;;;;;;;;11.90;76.90;;;;;;5054184;28;19909;-74
2022/04/10 08:57:06;;;;;;;;;;;10.50;81.60;;;;;;5054290;28;19908;-74
2022/04/10 08:59:32;;;;;;;;;;;9.70;83.40;;;;;;5054336;28;19909;-74
2022/04/10 09:01:58;;;;;;;;;;;9.30;86.00;;;;;;5054047;28;19959;-74
2022/04/10 09:04:23;;;;;;;;;;;9.60;84.10;;;;;;5054035;28;19908;-73
2022/04/10 09:07:15;;;;;;;;;;;9.40;87.90;;;;;;5054025;28;19913;-74
2022/04/10 09:09:42;;;;;;;;;;;9.40;82.10;;;;;;5053600;28;19970;-74
2022/04/10 09:12:08;;;;;;;;;;;8.90;87.40;;;;;;5053913;28;19913;-74
2022/04/10 09:14:34;;;;;;;;;;;8.50;88.60;;;;;;5053843;28;19912;-74
2022/04/10 09:17:13;;;;;;;;;;;7.40;85.00;;;;;;5053868;28;19909;-74
2022/04/10 09:19:41;;;;;;;;;;;7.10;87.40;;;;;;5047521;28;19909;-74
2022/04/10 09:22:25;;;;;;;;;;;6.90;90.10;;;;;;5053550;28;19909;-74
2022/04/10 09:25:00;;;;;;;;;;;6.70;89.40;;;;;;5048523;28;19909;-73
2022/04/10 09:27:30;;;;;;;;;;;6.70;90.40;;;;;;5053691;28;20373;-73
2022/04/10 09:29:55;;;;;;;;;;;6.70;90.00;;;;;;5053765;28;19909;-74
2022/04/10 09:32:21;;;;;;;;;;;6.90;88.20;;;;;;5053487;28;19909;-74
2022/04/10 09:34:54;;;;;;;;;;;7.10;87.00;;;;;;5053315;28;20015;-74
2022/04/10 09:37:20;;;;;;;;;;;8.40;87.50;;;;;;5053654;28;19908;-74
2022/04/10 09:39:46;;;;;;;;;;;10.10;78.90;;;;;;5053769;28;19912;-74
2022/04/10 09:42:14;;;;;;;;;;;9.50;78.90;;;;;;5053522;28;19909;-74
2022/04/10 09:44:39;;;;;;;;;;;10.70;76.20;;;;;;5044899;28;19915;-74
2022/04/10 09:47:06;;;;;;;;;;;9.50;71.70;;;;;;5053231;28;20277;-75
2022/04/10 09:49:32;;;;;;;;;;;8.80;76.60;;;;;;5053040;28;19963;-74
2022/04/10 09:51:59;;;;;;;;;;;8.70;77.40;;;;;;5053152;28;19919;-74
2022/04/10 09:54:24;;;;;;;;;;;8.10;78.60;;;;;;5053122;28;19970;-73
2022/04/10 09:56:50;;;;;;;;;;;8.40;80.20;;;;;;5053451;28;19913;-75
2022/04/10 09:59:17;;;;;;;;;;;8.80;77.30;;;;;;5053235;28;19953;-74
2022/04/10 10:01:43;;;;;;;;;;;9.10;78.90;;;;;;5052164;28;19997;-72
2022/04/10 10:04:11;;;;;;;;;;;10.20;76.90;;;;;;5049785;28;20001;-74
2022/04/10 10:06:37;;;;;;;;;;;11.40;72.70;;;;;;5050029;28;20003;-74
2022/04/10 10:09:02;;;;;;;;;;;11.30;74.10;;;;;;5050167;28;20072;-74
2022/04/10 10:11:29;;;;;;;;;;;11.40;75.40;;;;;;5049765;28;19913;-74
2022/04/10 10:13:55;;;;;;;;;;;12.70;72.00;;;;;;5049616;28;20266;-75
2022/04/10 10:16:20;;;;;;;;;;;11.50;71.00;;;;;;5049621;28;19909;-74
2022/04/10 10:18:46;;;;;;;;;;;8.20;85.20;;;;;;5047690;28;20027;-74
2022/04/10 10:21:11;;;;;;;;;;;6.30;91.20;;;;;;5052276;28;19913;-74
2022/04/10 10:23:39;;;;;;;;;;;5.30;95.50;;;;;;5052416;28;20449;-74
2022/04/10 10:26:26;;;;;;;;;;;4.20;98.60;;;;;;5045024;28;20358;-74
2022/04/10 10:28:56;;;;;;;;;;;3.80;99.90;;;;;;5048574;28;19954;-74
2022/04/10 10:31:21;;;;;;;;;;;3.60;99.90;;;;;;5050798;28;19916;-73
2022/04/10 10:33:51;;;;;;;;;;;3.80;99.90;;;;;;5051691;28;19913;-74
2022/04/10 10:36:23;;;;;;;;;;;4.10;99.90;;;;;;5052523;28;19999;-74
2022/04/10 10:38:50;;;;;;;;;;;4.50;99.90;;;;;;5052281;28;19909;-75
2022/04/10 10:41:16;;;;;;;;;;;4.80;99.90;;;;;;5052007;28;20046;-74
2022/04/10 10:43:42;;;;;;;;;;;5.70;99.90;;;;;;5052117;28;20000;-74
2022/04/10 10:46:28;;;;;;;;;;;6.10;99.90;;;;;;5051702;28;19917;-75
2022/04/10 10:49:30;;;;;;;;;;;7.80;96.40;;;;;;5045227;28;19920;-74
2022/04/10 10:51:55;;;;;;;;;;;9.20;91.70;;;;;;5026999;28;19909;-74
2022/04/10 10:54:27;;;;;;;;;;;10.50;91.30;;;;;;5047166;28;19909;-75
2022/04/10 10:56:53;;;;;;;;;;;12.60;78.00;;;;;;5051714;28;19909;-74
2022/04/10 10:59:24;;;;;;;;;;;13.40;78.90;;;;;;5052082;28;20366;-74
2022/04/10 11:01:51;;;;;;;;;;;15.70;72.90;;;;;;5051638;28;19908;-74
2022/04/10 11:04:18;;;;;;;;;;;14.60;77.90;;;;;;5051590;28;19916;-74
2022/04/10 11:06:44;;;;;;;;;;;14.70;79.00;;;;;;5051768;28;20353;-74
2022/04/10 11:09:28;;;;;;;;;;;14.90;74.40;;;;;;5051862;28;19916;-74
2022/04/10 11:11:55;;;;;;;;;;;15.90;68.60;;;;;;5045208;28;20290;-75
2022/04/10 11:14:34;;;;;;;;;;;17.00;70.10;;;;;;5045053;28;19909;-74
2022/04/10 11:17:19;;;;;;;;;;;16.00;69.20;;;;;;5051633;28;19913;-74
2022/04/10 11:19:49;;;;;;;;;;;17.10;66.90;;;;;;5051392;28;19954;-74
2022/04/10 11:22:19;;;;;;;;;;;19.30;64.30;;;;;;5051307;28;19978;-74
2022/04/10 11:24:45;;;;;;;;;;;17.40;60.80;;;;;;5051491;28;19951;-74
2022/04/10 11:27:11;;;;;;;;;;;19.20;57.00;;;;;;5050040;28;20194;-75
2022/04/10 11:29:41;;;;;;;;;;;20.20;55.90;;;;;;5050090;28;19909;-74
2022/04/10 11:32:06;;;;;;;;;;;17.00;54.50;;;;;;5052705;28;19967;-74
2022/04/10 11:34:39;;;;;;;;;;;12.00;65.60;;;;;;5051230;28;19916;-75
2022/04/10 11:37:05;;;;;;;;;;;11.10;71.90;;;;;;5051394;28;20112;-74
2022/04/10 11:39:34;;;;;;;;;;;9.80;80.30;;;;;;5051278;28;19909;-74
2022/04/10 11:42:04;;;;;;;;;;;9.30;83.80;;;;;;5051159;28;19915;-75
2022/04/10 11:44:30;;;;;;;;;;;9.40;87.60;;;;;;5050936;28;19909;-74
2022/04/10 11:46:58;;;;;;;;;;;9.40;88.90;;;;;;5051066;28;20273;-74
2022/04/10 11:49:23;;;;;;;;;;;9.50;84.80;;;;;;5046566;28;19909;-73
2022/04/10 11:51:50;;;;;;;;;;;9.20;87.70;;;;;;5050822;28;19915;-74
2022/04/10 11:54:24;;;;;;;;;;;10.80;86.20;;;;;;5050600;28;19912;-74
2022/04/10 11:56:50;;;;;;;;;;;11.70;81.20;;;;;;5051136;28;20058;-74
2022/04/10 11:59:16;;;;;;;;;;;13.00;75.00;;;;;;5050948;28;20259;-74
2022/04/10 12:01:42;;;;;;;;;;;15.40;69.30;;;;;;5050846;28;19909;-73
2022/04/10 12:04:08;;;;;;;;;;;15.90;66.80;;;;;;5050789;28;19967;-74
2022/04/10 12:06:33;;;;;;;;;;;11.90;73.00;;;;;;5051255;28;19916;-73
2022/04/10 12:08:59;;;;;;;;;;;9.70;82.40;;;;;;5053763;28;20269;-74
2022/04/10 12:11:25;;;;;;;;;;;8.70;87.30;;;;;;5054936;28;19996;-74
2022/04/10 12:13:50;;;;;;;;;;;8.40;89.80;;;;;;5054743;28;19916;-74
2022/04/10 12:16:16;;;;;;;;;;;8.20;90.00;;;;;;5053821;28;19915;-73
2022/04/10 12:18:49;;;;;;;;;;;7.60;89.80;;;;;;5051246;28;19916;-73
2022/04/10 12:21:15;;;;;;;;;;;7.60;90.60;;;;;;5056024;28;19909;-74
2022/04/10 12:23:41;;;;;;;;;;;7.40;90.00;;;;;;5054964;28;19909;-74
2022/04/10 12:26:07;;;;;;;;;;;7.50;90.80;;;;;;5054580;28;19947;-75
2022/04/10 12:28:33;;;;;;;;;;;7.40;91.20;;;;;;5054691;28;20003;-74
2022/04/10 12:30:59;;;;;;;;;;;7.30;86.20;;;;;;5054481;28;20439;-74
2022/04/10 12:33:25;;;;;;;;;;;7.20;86.40;;;;;;5054324;28;20273;-74
2022/04/10 12:35:50;;;;;;;;;;;6.90;82.40;;;;;;5054476;28;19915;-74
2022/04/10 12:38:16;;;;;;;;;;;7.40;85.00;;;;;;5054655;28;20284;-75
2022/04/10 12:40:42;;;;;;;;;;;7.70;80.50;;;;;;5054621;28;20448;-74
2022/04/10 12:43:09;;;;;;;;;;;8.10;80.30;;;;;;5051452;28;19916;-74
2022/04/10 12:45:35;;;;;;;;;;;8.90;81.50;;;;;;5054208;28;19956;-74
2022/04/10 12:48:01;;;;;;;;;;;9.00;76.00;;;;;;5052285;28;19922;-74
2022/04/10 12:50:27;;;;;;;;;;;9.10;82.70;;;;;;5053779;28;19963;-74
2022/04/10 12:52:55;;;;;;;;;;;9.10;82.40;;;;;;5054183;28;19995;-74
2022/04/10 12:55:20;;;;;;;;;;;8.70;85.50;;;;;;5054108;28;20373;-74
2022/04/10 12:57:52;;;;;;;;;;;9.00;89.00;;;;;;5054223;28;19944;-74
2022/04/10 13:00:34;;;;;;;;;;;9.40;88.50;;;;;;5054081;28;19948;-74
2022/04/10 13:03:18;;;;;;;;;;;8.70;84.40;;;;;;5052568;28;19940;-74
2022/04/10 13:05:56;;;;;;;;;;;9.10;85.70;;;;;;5048100;28;19944;-73
2022/04/10 13:08:25;;;;;;;;;;;9.00;84.90;;;;;;5054065;28;19998;-73
2022/04/10 13:10:51;;;;;;;;;;;9.30;88.10;;;;;;5053930;28;19909;-74
2022/04/10 13:13:16;;;;;;;;;;;9.40;87.20;;;;;;5053809;28;19916;-74
2022/04/10 13:15:42;;;;;;;;;;;9.50;89.20;;;;;;5054314;28;19996;-74
2022/04/10 13:18:08;;;;;;;;;;;10.00;84.70;;;;;;5053617;28;20325;-74
2022/04/10 13:20:38;;;;;;;;;;;9.70;82.50;;;;;;5053312;28;19909;-74
2022/04/10 13:23:03;;;;;;;;;;;9.40;86.20;;;;;;5053600;28;19916;-74
2022/04/10 13:25:32;;;;;;;;;;;9.00;87.00;;;;;;5053569;28;19909;-74
2022/04/10 13:27:58;;;;;;;;;;;8.60;84.00;;;;;;5053390;28;19912;-73
2022/04/10 13:30:24;;;;;;;;;;;8.40;88.30;;;;;;5053551;28;20346;-74
2022/04/10 13:32:49;;;;;;;;;;;8.30;87.40;;;;;;5053481;28;19916;-74
2022/04/10 13:35:15;;;;;;;;;;;8.30;85.70;;;;;;5053284;28;19932;-74
2022/04/10 13:37:41;;;;;;;;;;;8.60;85.70;;;;;;5053152;28;19913;-74
2022/04/10 13:40:07;;;;;;;;;;;9.20;86.70;;;;;;5053433;28;19908;-74
2022/04/10 13:42:35;;;;;;;;;;;9.10;81.70;;;;;;5053111;28;19955;-74
2022/04/10 13:45:01;;;;;;;;;;;9.20;82.50;;;;;;5053431;28;19916;-74
2022/04/10 13:47:27;;;;;;;;;;;8.80;77.30;;;;;;5053261;28;19920;-74
2022/04/10 13:49:52;;;;;;;;;;;8.90;81.20;;;;;;5053060;28;19908;-74
2022/04/10 13:52:18;;;;;;;;;;;8.50;83.30;;;;;;5052809;28;19913;-74
2022/04/10 13:54:43;;;;;;;;;;;8.50;83.60;;;;;;5052928;28;19947;-74
2022/04/10 13:57:09;;;;;;;;;;;8.20;81.50;;;;;;5052861;28;19915;-74
2022/04/10 13:59:34;;;;;;;;;;;8.20;81.80;;;;;;5053170;28;19909;-73
2022/04/10 14:02:00;;;;;;;;;;;8.10;82.10;;;;;;5052862;28;19928;-74
2022/04/10 14:04:26;;;;;;;;;;;8.10;83.10;;;;;;5053046;28;19967;-74
2022/04/10 14:06:51;;;;;;;;;;;7.90;82.90;;;;;;5052928;28;20274;-74
2022/04/10 14:09:17;;;;;;;;;;;7.90;81.30;;;;;;5052885;28;19924;-74
2022/04/10 14:11:42;;;;;;;;;;;7.90;80.30;;;;;;5052436;28;20007;-73
2022/04/10 14:14:08;;;;;;;;;;;8.00;83.00;;;;;;5052618;28;20296;-74
2022/04/10 14:16:33;;;;;;;;;;;8.00;84.70;;;;;;5053115;28;19943;-74
2022/04/10 14:18:59;;;;;;;;;;;8.00;83.40;;;;;;5049856;28;20365;-74
2022/04/10 14:21:24;;;;;;;;;;;8.10;83.30;;;;;;5052023;28;19941;-75
2022/04/10 14:23:50;;;;;;;;;;;8.30;82.90;;;;;;5051116;28;19909;-74
2022/04/10 14:26:15;;;;;;;;;;;8.40;84.30;;;;;;5052263;28;19920;-74
2022/04/10 14:28:41;;;;;;;;;;;8.40;82.60;;;;;;5052547;28;19995;-74